createdAt,value
2019-04-30T00:00:30.401Z,90.75
2019-04-30T00:01:28.726Z,91.46
2019-04-30T00:02:34.823Z,90.95
2019-04-30T00:03:28.740Z,90.75
2019-04-30T00:04:29.796Z,90.13
2019-04-30T00:05:28.687Z,89.89
2019-04-30T00:06:34.684Z,91.05
2019-04-30T00:07:28.666Z,91.05
2019-04-30T00:08:30.227Z,90.81
2019-04-30T00:09:28.672Z,90.95
2019-04-30T00:10:35.951Z,91.05
2019-04-30T00:11:28.661Z,90.84
2019-04-30T00:12:30.800Z,91.05
2019-04-30T00:13:28.597Z,91.26
2019-04-30T00:14:32.503Z,90.70
2019-04-30T00:15:28.606Z,89.83
2019-04-30T00:16:30.972Z,91.26
2019-04-30T00:17:28.554Z,90.95
2019-04-30T00:18:30.748Z,90.50
2019-04-30T00:19:28.563Z,90.54
2019-04-30T00:20:30.002Z,91.36
2019-04-30T00:21:28.511Z,90.19
2019-04-30T00:22:33.888Z,90.44
2019-04-30T00:23:30.600Z,90.54
2019-04-30T00:24:27.512Z,90.34
2019-04-30T00:25:28.637Z,90.54
2019-04-30T00:26:27.457Z,90.75
2019-04-30T00:27:30.207Z,90.75
2019-04-30T00:28:27.490Z,90.30
2019-04-30T00:29:30.814Z,91.26
2019-04-30T00:30:27.414Z,91.56
2019-04-30T00:31:27.631Z,91.36
2019-04-30T00:32:27.401Z,91.16
2019-04-30T00:33:27.698Z,91.26
2019-04-30T00:34:30.884Z,91.46
2019-04-30T00:35:28.391Z,91.26
2019-04-30T00:36:33.884Z,91.16
2019-04-30T00:37:28.333Z,91.36
2019-04-30T00:38:29.570Z,91.46
2019-04-30T00:39:28.335Z,91.16
2019-04-30T00:40:30.131Z,91.46
2019-04-30T00:41:27.294Z,91.36
2019-04-30T00:42:28.799Z,91.26
2019-04-30T00:43:27.289Z,90.95
2019-04-30T00:44:28.460Z,91.26
2019-04-30T00:45:27.248Z,91.36
2019-04-30T00:46:29.315Z,91.16
2019-04-30T00:47:27.231Z,91.16
2019-04-30T00:48:31.005Z,91.11
2019-04-30T00:49:27.225Z,91.16
2019-04-30T00:50:29.037Z,91.16
2019-04-30T00:51:27.218Z,91.16
2019-04-30T00:52:29.535Z,91.36
2019-04-30T00:53:28.165Z,91.31
2019-04-30T00:54:30.619Z,90.84
2019-04-30T00:55:27.146Z,90.95
2019-04-30T00:56:28.340Z,90.84
2019-04-30T00:57:27.161Z,91.05
2019-04-30T00:58:30.262Z,91.46
2019-04-30T00:59:27.107Z,91.56
2019-04-30T01:00:29.586Z,91.16
2019-04-30T01:01:27.088Z,91.16
2019-04-30T01:02:31.775Z,91.26
2019-04-30T01:03:28.072Z,90.75
2019-04-30T01:04:28.236Z,90.84
2019-04-30T01:05:27.160Z,90.84
2019-04-30T01:06:28.629Z,90.95
2019-04-30T01:07:27.016Z,91.05
2019-04-30T01:08:28.615Z,90.95
2019-04-30T01:09:26.986Z,90.64
2019-04-30T01:10:28.424Z,90.75
2019-04-30T01:11:26.972Z,90.84
2019-04-30T01:12:29.670Z,91.36
2019-04-30T01:13:29.110Z,91.40
2019-04-30T01:14:28.253Z,91.46
2019-04-30T01:15:29.036Z,91.20
2019-04-30T01:16:30.162Z,91.50
2019-04-30T01:17:29.866Z,92.12
2019-04-30T01:18:30.576Z,92.08
2019-04-30T01:19:32.165Z,92.12
2019-04-30T01:20:29.117Z,91.16
2019-04-30T01:21:28.557Z,90.99
2019-04-30T01:22:31.174Z,91.20
2019-04-30T01:23:29.622Z,91.91
2019-04-30T01:24:28.417Z,91.61
2019-04-30T01:25:28.755Z,91.82
2019-04-30T01:26:29.662Z,92.02
2019-04-30T01:27:28.398Z,91.91
2019-04-30T01:28:28.426Z,92.12
2019-04-30T01:29:31.111Z,91.91
2019-04-30T01:30:28.467Z,91.30
2019-04-30T01:31:31.634Z,91.20
2019-04-30T01:32:28.493Z,91.91
2019-04-30T01:33:28.441Z,91.91
2019-04-30T01:34:29.385Z,92.12
2019-04-30T01:35:30.867Z,92.12
2019-04-30T01:36:29.367Z,91.71
2019-04-30T01:37:29.577Z,92.12
2019-04-30T01:38:28.698Z,92.02
2019-04-30T01:39:30.047Z,91.61
2019-04-30T01:40:28.461Z,91.91
2019-04-30T01:41:28.260Z,91.91
2019-04-30T01:42:28.401Z,91.91
2019-04-30T01:43:32.503Z,92.22
2019-04-30T01:44:29.403Z,92.43
2019-04-30T01:45:28.122Z,92.22
2019-04-30T01:46:26.621Z,92.02
2019-04-30T01:47:27.828Z,92.32
2019-04-30T01:48:26.577Z,92.12
2019-04-30T01:49:27.198Z,92.27
2019-04-30T01:50:26.563Z,91.91
2019-04-30T01:51:28.250Z,91.82
2019-04-30T01:52:29.200Z,91.71
2019-04-30T01:53:28.560Z,92.12
2019-04-30T01:54:26.501Z,92.22
2019-04-30T01:55:26.487Z,92.12
2019-04-30T01:56:26.500Z,92.12
2019-04-30T01:57:26.483Z,91.82
2019-04-30T01:58:29.995Z,92.47
2019-04-30T01:59:26.453Z,91.75
2019-04-30T02:00:26.472Z,92.27
2019-04-30T02:01:26.426Z,92.06
2019-04-30T02:02:28.530Z,92.47
2019-04-30T02:03:26.416Z,92.32
2019-04-30T02:04:26.398Z,92.32
2019-04-30T02:05:26.374Z,91.86
2019-04-30T02:06:26.398Z,92.06
2019-04-30T02:07:26.406Z,92.06
2019-04-30T02:08:26.357Z,91.75
2019-04-30T02:09:26.332Z,91.96
2019-04-30T02:10:26.339Z,91.65
2019-04-30T02:11:26.314Z,91.35
2019-04-30T02:12:26.324Z,91.96
2019-04-30T02:13:26.325Z,91.96
2019-04-30T02:14:26.290Z,92.02
2019-04-30T02:15:26.278Z,91.65
2019-04-30T02:16:26.254Z,91.96
2019-04-30T02:17:26.265Z,92.06
2019-04-30T02:18:26.270Z,92.06
2019-04-30T02:19:26.229Z,92.36
2019-04-30T02:20:26.225Z,92.27
2019-04-30T02:21:26.210Z,91.75
2019-04-30T02:22:26.204Z,91.96
2019-04-30T02:23:26.186Z,92.27
2019-04-30T02:24:26.194Z,91.75
2019-04-30T02:25:26.157Z,91.55
2019-04-30T02:26:26.160Z,92.36
2019-04-30T02:27:26.150Z,91.55
2019-04-30T02:28:26.164Z,92.36
2019-04-30T02:29:26.120Z,91.14
2019-04-30T02:30:26.103Z,91.24
2019-04-30T02:31:26.114Z,90.93
2019-04-30T02:32:26.090Z,91.03
2019-04-30T02:33:26.091Z,91.55
2019-04-30T02:34:26.075Z,91.44
2019-04-30T02:35:26.092Z,91.24
2019-04-30T02:36:26.034Z,91.44
2019-04-30T02:37:26.032Z,91.35
2019-04-30T02:38:26.034Z,91.55
2019-04-30T02:39:26.011Z,91.03
2019-04-30T02:40:25.994Z,91.75
2019-04-30T02:41:25.995Z,91.55
2019-04-30T02:42:25.975Z,91.14
2019-04-30T02:43:26.029Z,91.14
2019-04-30T02:44:29.191Z,91.55
2019-04-30T02:45:25.934Z,91.75
2019-04-30T02:46:26.026Z,91.24
2019-04-30T02:47:25.927Z,90.93
2019-04-30T02:48:25.954Z,91.55
2019-04-30T02:49:25.915Z,91.55
2019-04-30T02:50:25.889Z,91.35
2019-04-30T02:51:25.872Z,91.03
2019-04-30T02:52:25.890Z,91.24
2019-04-30T02:53:25.848Z,91.49
2019-04-30T02:54:25.871Z,91.44
2019-04-30T02:55:25.862Z,91.49
2019-04-30T02:56:26.688Z,91.49
2019-04-30T02:57:25.805Z,91.14
2019-04-30T02:58:25.788Z,91.49
2019-04-30T02:59:25.801Z,91.44
2019-04-30T03:00:25.775Z,91.49
2019-04-30T03:01:25.756Z,91.18
2019-04-30T03:02:25.763Z,91.08
2019-04-30T03:03:25.762Z,91.44
2019-04-30T03:04:25.734Z,91.38
2019-04-30T03:05:25.721Z,91.38
2019-04-30T03:06:25.743Z,91.49
2019-04-30T03:07:25.694Z,91.38
2019-04-30T03:08:25.678Z,91.59
2019-04-30T03:09:25.679Z,91.28
2019-04-30T03:10:25.670Z,90.77
2019-04-30T03:11:25.665Z,90.97
2019-04-30T03:12:25.665Z,91.22
2019-04-30T03:13:25.626Z,90.97
2019-04-30T03:14:25.615Z,90.97
2019-04-30T03:15:25.633Z,91.53
2019-04-30T03:16:25.638Z,91.33
2019-04-30T03:17:25.588Z,91.02
2019-04-30T03:18:25.571Z,91.16
2019-04-30T03:19:25.568Z,91.33
2019-04-30T03:20:35.087Z,91.33
2019-04-30T03:21:29.036Z,91.33
2019-04-30T03:22:26.547Z,91.27
2019-04-30T03:23:25.525Z,91.53
2019-04-30T03:24:25.509Z,91.42
2019-04-30T03:25:25.500Z,91.74
2019-04-30T03:26:25.512Z,91.47
2019-04-30T03:27:25.506Z,92.50
2019-04-30T03:28:25.480Z,92.40
2019-04-30T03:29:25.486Z,92.29
2019-04-30T03:30:25.450Z,92.19
2019-04-30T03:31:25.439Z,92.40
2019-04-30T03:32:25.449Z,92.40
2019-04-30T03:33:25.436Z,91.78
2019-04-30T03:34:26.432Z,92.19
2019-04-30T03:35:25.392Z,91.88
2019-04-30T03:36:25.382Z,92.13
2019-04-30T03:37:25.384Z,92.33
2019-04-30T03:38:25.402Z,92.13
2019-04-30T03:39:25.349Z,92.23
2019-04-30T03:40:25.333Z,92.33
2019-04-30T03:41:25.349Z,92.13
2019-04-30T03:42:25.333Z,92.44
2019-04-30T03:43:25.313Z,92.44
2019-04-30T03:44:26.112Z,92.23
2019-04-30T03:45:25.318Z,92.23
2019-04-30T03:46:25.294Z,92.48
2019-04-30T03:47:25.310Z,92.27
2019-04-30T03:48:25.295Z,92.38
2019-04-30T03:49:25.242Z,92.48
2019-04-30T03:50:25.258Z,92.07
2019-04-30T03:51:25.229Z,91.82
2019-04-30T03:52:25.198Z,92.38
2019-04-30T03:53:25.192Z,91.97
2019-04-30T03:54:25.250Z,92.79
2019-04-30T03:55:25.193Z,92.38
2019-04-30T03:56:25.206Z,92.38
2019-04-30T03:58:54.143Z,92.07
2019-04-30T03:59:44.126Z,92.79
2019-04-30T04:00:46.591Z,92.17
2019-04-30T04:06:03.932Z,92.32
2019-04-30T04:07:12.326Z,92.63
2019-04-30T04:08:03.783Z,93.04
2019-04-30T04:09:03.772Z,92.11
2019-04-30T04:10:03.818Z,92.83
2019-04-30T04:19:49.449Z,92.25
2019-04-30T04:22:51.249Z,92.36
2019-04-30T04:25:20.474Z,92.25
2019-04-30T04:26:20.223Z,92.67
2019-04-30T04:28:36.693Z,92.61
2019-04-30T04:39:42.747Z,93.33
2019-04-30T04:40:46.748Z,93.43
2019-04-30T04:41:44.173Z,92.92
2019-04-30T04:42:41.526Z,93.02
2019-04-30T04:43:41.539Z,93.23
2019-04-30T04:44:41.522Z,93.43
2019-04-30T04:45:43.830Z,93.54
2019-04-30T04:46:50.342Z,93.23
2019-04-30T04:49:13.018Z,93.99
2019-04-30T04:59:33.024Z,93.84
2019-04-30T05:00:31.113Z,93.58
2019-04-30T05:01:31.131Z,93.58
2019-04-30T05:02:41.571Z,92.96
2019-04-30T05:03:31.123Z,93.33
2019-04-30T05:04:31.076Z,92.10
2019-04-30T05:05:31.054Z,93.48
2019-04-30T05:06:31.058Z,92.96
2019-04-30T05:07:31.041Z,92.92
2019-04-30T05:08:31.013Z,93.27
2019-04-30T05:09:31.042Z,93.43
2019-04-30T05:10:31.526Z,93.64
2019-04-30T05:11:31.700Z,94.15
2019-04-30T05:12:30.974Z,94.87
2019-04-30T05:13:30.957Z,93.95
2019-04-30T05:14:30.979Z,94.42
2019-04-30T05:15:30.960Z,94.36
2019-04-30T05:16:30.956Z,94.52
2019-04-30T05:24:09.060Z,94.11
2019-04-30T05:25:08.841Z,94.31
2019-04-30T05:26:11.079Z,94.21
2019-04-30T05:27:09.256Z,94.42
2019-04-30T05:28:09.026Z,94.21
2019-04-30T05:29:09.538Z,94.52
2019-04-30T05:30:11.749Z,94.62
2019-04-30T05:31:18.435Z,94.52
2019-04-30T05:33:48.887Z,94.42
2019-04-30T05:34:49.567Z,94.27
2019-04-30T05:35:49.476Z,94.78
2019-04-30T05:36:49.029Z,94.58
2019-04-30T05:37:49.366Z,94.48
2019-04-30T05:38:48.732Z,93.65
2019-04-30T05:39:48.914Z,93.76
2019-04-30T05:40:49.538Z,93.76
2019-04-30T05:42:51.488Z,93.20
2019-04-30T05:45:01.140Z,93.20
2019-04-30T06:05:13.639Z,89.93
2019-04-30T06:08:30.030Z,89.07
2019-04-30T06:12:11.141Z,88.45
2019-04-30T06:37:55.434Z,84.37
2019-04-30T06:38:55.370Z,85.50
2019-04-30T06:39:55.403Z,84.74
2019-04-30T06:40:55.386Z,85.15
2019-04-30T07:04:25.800Z,80.74
2019-04-30T07:05:25.378Z,81.04
2019-04-30T07:26:30.457Z,81.01
2019-04-30T07:27:43.016Z,80.35
2019-04-30T07:28:43.797Z,79.84
2019-04-30T07:29:31.399Z,79.94
2019-04-30T07:30:30.918Z,79.60
2019-04-30T07:31:30.332Z,80.73
2019-04-30T07:32:30.309Z,79.97
2019-04-30T07:33:30.307Z,79.05
2019-04-30T07:34:36.561Z,77.35
2019-04-30T07:35:31.293Z,78.54
2019-04-30T07:36:45.296Z,78.54
2019-04-30T07:37:31.283Z,78.95
2019-04-30T07:38:30.284Z,79.32
2019-04-30T07:39:33.293Z,79.22
2019-04-30T07:40:30.246Z,77.28
2019-04-30T07:41:31.197Z,77.75
2019-04-30T07:42:30.259Z,77.34
2019-04-30T07:43:30.209Z,76.53
2019-04-30T07:44:36.246Z,76.63
2019-04-30T07:45:32.176Z,76.02
2019-04-30T07:46:34.785Z,77.14
2019-04-30T07:47:31.152Z,76.19
2019-04-30T07:48:30.137Z,76.70
2019-04-30T07:49:46.207Z,74.55
2019-04-30T07:50:32.152Z,75.16
2019-04-30T07:51:32.191Z,76.29
2019-04-30T07:52:33.946Z,75.37
2019-04-30T07:53:30.960Z,75.48
2019-04-30T07:54:30.170Z,75.68
2019-04-30T07:55:30.064Z,75.37
2019-04-30T07:56:37.348Z,73.84
2019-04-30T07:57:32.514Z,74.66
2019-04-30T07:58:30.023Z,77.11
2019-04-30T07:59:30.258Z,75.34
2019-04-30T08:00:31.248Z,74.21
2019-04-30T08:01:29.993Z,75.23
2019-04-30T08:02:36.036Z,73.81
2019-04-30T08:03:31.276Z,74.21
2019-04-30T08:04:29.959Z,73.19
2019-04-30T08:05:30.009Z,73.94
2019-04-30T08:06:30.887Z,74.35
2019-04-30T08:07:30.321Z,74.76
2019-04-30T08:08:30.485Z,73.71
2019-04-30T08:09:39.214Z,74.52
2019-04-30T08:10:30.889Z,74.21
2019-04-30T08:11:34.412Z,74.01
2019-04-30T08:12:35.806Z,73.60
2019-04-30T08:13:32.855Z,72.89
2019-04-30T08:14:29.880Z,73.81
2019-04-30T08:15:29.852Z,74.21
2019-04-30T08:16:29.828Z,73.71
2019-04-30T08:17:29.832Z,72.69
2019-04-30T08:18:29.799Z,73.30
2019-04-30T08:19:29.792Z,72.65
2019-04-30T08:20:29.800Z,72.92
2019-04-30T08:21:29.796Z,72.62
2019-04-30T08:22:29.844Z,72.21
2019-04-30T08:23:34.848Z,72.62
2019-04-30T08:24:30.746Z,72.72
2019-04-30T08:25:29.738Z,72.21
2019-04-30T08:26:29.719Z,71.80
2019-04-30T08:27:29.766Z,71.70
2019-04-30T08:28:30.390Z,70.89
2019-04-30T08:29:29.693Z,70.55
2019-04-30T08:30:30.132Z,70.65
2019-04-30T08:31:29.656Z,71.94
2019-04-30T08:32:29.677Z,71.02
2019-04-30T08:33:29.651Z,69.06
2019-04-30T08:34:29.637Z,68.96
2019-04-30T08:35:29.770Z,69.26
2019-04-30T08:36:29.949Z,69.74
2019-04-30T08:37:29.636Z,67.10
2019-04-30T08:38:30.090Z,68.41
2019-04-30T08:39:31.905Z,66.69
2019-04-30T08:40:29.814Z,65.16
2019-04-30T08:41:29.574Z,68.59
2019-04-30T08:42:33.875Z,70.08
2019-04-30T08:43:30.536Z,68.93
2019-04-30T08:44:29.726Z,68.26
2019-04-30T08:45:32.196Z,68.23
2019-04-30T08:46:30.512Z,63.53
2019-04-30T08:47:29.493Z,63.73
2019-04-30T08:48:44.253Z,63.32
2019-04-30T08:49:31.086Z,62.82
2019-04-30T08:50:30.174Z,63.53
2019-04-30T08:51:31.126Z,63.53
2019-04-30T08:52:30.485Z,62.41
2019-04-30T08:53:33.192Z,65.05
2019-04-30T08:54:29.587Z,65.32
2019-04-30T08:55:30.409Z,62.86
2019-04-30T08:56:29.731Z,62.29
2019-04-30T08:57:29.498Z,62.18
2019-04-30T08:58:29.377Z,63.73
2019-04-30T08:59:29.576Z,67.05
2019-04-30T09:00:29.789Z,66.03
2019-04-30T09:01:29.619Z,64.18
2019-04-30T09:02:29.343Z,62.66
2019-04-30T09:03:29.682Z,62.40
2019-04-30T09:04:29.317Z,61.69
2019-04-30T09:05:30.637Z,64.49
2019-04-30T09:06:29.809Z,61.43
2019-04-30T09:07:29.783Z,61.63
2019-04-30T09:08:29.494Z,61.60
2019-04-30T09:09:29.617Z,59.69
2019-04-30T09:10:29.481Z,58.98
2019-04-30T09:11:35.588Z,57.16
2019-04-30T09:12:30.258Z,57.18
2019-04-30T09:13:29.219Z,59.31
2019-04-30T09:14:29.902Z,57.42
2019-04-30T09:15:29.241Z,58.15
2019-04-30T09:16:29.563Z,59.22
2019-04-30T09:17:29.687Z,61.72
2019-04-30T09:18:29.344Z,61.69
2019-04-30T09:19:29.886Z,61.25
2019-04-30T09:20:29.270Z,59.84
2019-04-30T09:21:29.975Z,59.11
2019-04-30T09:22:29.388Z,59.21
2019-04-30T09:23:42.582Z,59.31
2019-04-30T09:24:31.099Z,60.32
2019-04-30T09:25:32.000Z,59.41
2019-04-30T09:26:29.235Z,58.60
2019-04-30T09:27:29.619Z,58.23
2019-04-30T09:28:29.510Z,59.54
2019-04-30T09:29:29.380Z,58.30
2019-04-30T09:30:29.916Z,58.40
2019-04-30T09:31:29.713Z,57.29
2019-04-30T09:32:29.230Z,58.20
2019-04-30T09:33:29.453Z,57.49
2019-04-30T09:34:29.295Z,57.56
2019-04-30T09:35:31.856Z,55.27
2019-04-30T09:36:29.364Z,55.67
2019-04-30T09:37:30.618Z,57.31
2019-04-30T09:38:29.130Z,57.21
2019-04-30T09:39:29.530Z,58.12
2019-04-30T09:40:32.158Z,58.02
2019-04-30T09:41:29.586Z,58.09
2019-04-30T09:42:29.607Z,56.58
2019-04-30T09:43:28.931Z,56.05
2019-04-30T09:44:30.723Z,55.36
2019-04-30T09:45:28.892Z,55.65
2019-04-30T09:46:29.884Z,57.06
2019-04-30T09:47:29.543Z,55.54
2019-04-30T09:48:30.582Z,56.32
2019-04-30T09:49:29.411Z,57.34
2019-04-30T09:50:29.511Z,56.73
2019-04-30T09:51:30.689Z,55.52
2019-04-30T09:52:30.816Z,58.52
2019-04-30T09:53:29.724Z,54.58
2019-04-30T09:54:29.570Z,55.72
2019-04-30T09:55:29.171Z,58.67
2019-04-30T09:56:29.405Z,57.43
2019-04-30T09:57:29.080Z,58.85
2019-04-30T09:58:29.992Z,60.74
2019-04-30T09:59:29.108Z,57.98
2019-04-30T10:00:29.504Z,57.35
2019-04-30T10:01:28.869Z,56.65
2019-04-30T10:02:29.070Z,55.26
2019-04-30T10:03:30.865Z,55.57
2019-04-30T10:04:30.302Z,56.50
2019-04-30T10:05:29.211Z,56.90
2019-04-30T10:06:39.357Z,57.51
2019-04-30T10:07:29.736Z,54.38
2019-04-30T10:08:30.745Z,59.50
2019-04-30T10:09:29.342Z,55.46
2019-04-30T10:10:28.951Z,56.75
2019-04-30T10:11:28.674Z,54.33
2019-04-30T10:12:29.395Z,55.66
2019-04-30T10:13:28.636Z,56.35
2019-04-30T10:14:28.603Z,55.64
2019-04-30T10:15:29.008Z,55.51
2019-04-30T10:16:29.614Z,53.80
2019-04-30T10:17:28.592Z,55.21
2019-04-30T10:18:28.570Z,53.07
2019-04-30T10:19:36.565Z,50.85
2019-04-30T10:20:28.568Z,53.58
2019-04-30T10:33:49.354Z,52.11
2019-04-30T10:34:48.965Z,51.43
2019-04-30T10:35:49.609Z,52.42
2019-04-30T10:36:49.454Z,55.23
2019-04-30T10:37:48.902Z,55.21
2019-04-30T10:38:49.444Z,56.99
2019-04-30T10:39:49.158Z,56.74
2019-04-30T10:47:56.535Z,51.39
2019-04-30T11:09:16.494Z,46.70
2019-04-30T11:12:46.585Z,46.11
2019-04-30T11:15:32.102Z,48.61
2019-04-30T11:16:31.635Z,50.89
2019-04-30T11:17:33.639Z,49.39
2019-04-30T11:18:31.715Z,45.16
2019-04-30T11:19:43.216Z,45.48
2019-04-30T11:20:31.752Z,46.08
2019-04-30T11:21:32.388Z,45.68
2019-04-30T11:22:31.823Z,46.20
2019-04-30T11:23:31.678Z,46.53
2019-04-30T11:24:38.096Z,47.53
2019-04-30T11:25:32.890Z,46.89
2019-04-30T11:26:32.313Z,48.22
2019-04-30T11:27:32.185Z,51.94
2019-04-30T11:28:31.679Z,48.43
2019-04-30T11:29:32.100Z,48.02
2019-04-30T11:30:31.642Z,48.14
2019-04-30T11:31:31.611Z,48.25
2019-04-30T11:32:31.652Z,51.68
2019-04-30T11:33:31.744Z,50.26
2019-04-30T11:34:31.437Z,49.53
2019-04-30T11:35:31.392Z,49.63
2019-04-30T11:36:32.131Z,49.51
2019-04-30T11:37:31.374Z,47.88
2019-04-30T11:38:31.380Z,45.45
2019-04-30T11:39:31.352Z,46.47
2019-04-30T11:40:36.620Z,47.25
2019-04-30T11:41:33.285Z,44.54
2019-04-30T11:42:32.406Z,44.74
2019-04-30T11:43:31.315Z,45.95
2019-04-30T11:44:31.690Z,45.75
2019-04-30T11:45:31.304Z,47.38
2019-04-30T11:46:31.303Z,47.45
2019-04-30T11:47:31.275Z,46.53
2019-04-30T11:48:31.267Z,45.90
2019-04-30T11:49:31.275Z,45.98
2019-04-30T11:50:31.257Z,46.58
2019-04-30T11:51:31.234Z,45.66
2019-04-30T11:52:31.244Z,46.26
2019-04-30T11:53:32.079Z,45.46
2019-04-30T11:54:31.238Z,45.28
2019-04-30T11:55:31.310Z,46.06
2019-04-30T11:56:31.295Z,45.76
2019-04-30T11:57:31.221Z,44.76
2019-04-30T11:58:31.221Z,45.84
2019-04-30T11:59:31.170Z,43.84
2019-04-30T12:00:31.168Z,43.54
2019-04-30T12:01:31.259Z,44.12
2019-04-30T12:02:31.313Z,45.92
2019-04-30T12:03:31.205Z,42.69
2019-04-30T12:04:31.121Z,41.80
2019-04-30T12:05:31.222Z,42.07
2019-04-30T12:08:49.182Z,41.49
2019-04-30T12:10:59.325Z,42.19
2019-04-30T12:12:10.365Z,42.82
2019-04-30T12:12:58.869Z,43.01
2019-04-30T12:13:58.728Z,43.12
2019-04-30T12:15:01.085Z,43.01
2019-04-30T12:15:59.060Z,43.19
2019-04-30T12:16:58.837Z,43.49
2019-04-30T12:17:58.943Z,42.99
2019-04-30T12:18:59.034Z,43.49
2019-04-30T12:19:58.729Z,43.29
2019-04-30T12:20:58.669Z,44.20
2019-04-30T12:21:58.661Z,43.21
2019-04-30T12:22:59.145Z,43.51
2019-04-30T12:23:58.684Z,43.71
2019-04-30T12:25:04.881Z,43.32
2019-04-30T12:26:02.678Z,43.71
2019-04-30T12:26:58.604Z,43.84
2019-04-30T12:27:59.687Z,43.93
2019-04-30T12:29:08.956Z,43.82
2019-04-30T12:35:06.218Z,41.85
2019-04-30T12:36:08.874Z,42.57
2019-04-30T12:37:06.174Z,42.15
2019-04-30T12:39:51.796Z,41.66
2019-04-30T12:40:51.354Z,41.75
2019-04-30T12:41:51.362Z,37.46
2019-04-30T12:42:51.392Z,39.18
2019-04-30T12:43:52.276Z,39.20
2019-04-30T12:44:51.303Z,40.39
2019-04-30T12:46:02.212Z,41.61
2019-04-30T12:46:52.286Z,40.61
2019-04-30T12:47:51.327Z,40.61
2019-04-30T12:48:51.310Z,39.85
2019-04-30T12:49:51.292Z,41.15
2019-04-30T12:50:51.246Z,40.25
2019-04-30T12:53:12.038Z,40.53
2019-04-30T12:54:11.940Z,39.91
2019-04-30T12:55:15.506Z,40.81
2019-04-30T12:56:11.481Z,40.01
2019-04-30T12:57:11.468Z,40.41
2019-04-30T12:58:11.453Z,40.22
2019-04-30T12:59:11.518Z,40.52
2019-04-30T13:00:11.481Z,39.01
2019-04-30T13:01:11.470Z,38.83
2019-04-30T13:02:11.414Z,40.03
2019-04-30T13:03:11.425Z,39.85
2019-04-30T13:04:11.433Z,40.75
2019-04-30T13:05:11.374Z,40.33
2019-04-30T13:06:12.025Z,40.43
2019-04-30T13:07:12.188Z,40.41
2019-04-30T13:08:11.915Z,40.80
2019-04-30T13:09:14.579Z,40.78
2019-04-30T13:10:12.038Z,40.66
2019-04-30T13:11:13.019Z,38.96
2019-04-30T13:23:33.254Z,43.15
2019-04-30T13:24:32.153Z,43.33
2019-04-30T13:25:35.526Z,42.69
2019-04-30T13:26:32.372Z,40.66
2019-04-30T13:27:32.091Z,39.84
2019-04-30T13:28:32.511Z,38.95
2019-04-30T13:29:32.256Z,40.02
2019-04-30T13:30:32.092Z,39.92
2019-04-30T13:31:32.008Z,39.70
2019-04-30T13:32:32.897Z,37.12
2019-04-30T13:33:31.981Z,35.94
2019-04-30T13:34:32.186Z,36.93
2019-04-30T13:35:33.001Z,38.93
2019-04-30T13:36:32.033Z,37.34
2019-04-30T13:37:31.956Z,38.25
2019-04-30T13:59:58.618Z,39.18
2019-04-30T14:05:59.421Z,39.02
2019-04-30T14:11:20.295Z,36.46
2019-04-30T14:12:19.432Z,37.56
2019-04-30T14:13:19.460Z,37.58
2019-04-30T14:14:19.996Z,36.47
2019-04-30T14:19:42.160Z,38.70
2019-04-30T14:20:41.741Z,44.39
2019-04-30T14:21:41.769Z,38.68
2019-04-30T14:22:41.839Z,39.58
2019-04-30T14:23:42.673Z,38.78
2019-04-30T14:36:53.728Z,38.73
2019-04-30T14:39:20.427Z,40.83
2019-04-30T14:41:40.922Z,40.31
2019-04-30T14:42:40.188Z,39.91
2019-04-30T14:43:42.788Z,40.71
2019-04-30T14:44:45.902Z,39.73
2019-04-30T14:45:40.096Z,40.13
2019-04-30T14:50:25.975Z,39.15
2019-04-30T14:51:25.903Z,39.05
2019-04-30T14:52:34.442Z,39.75
2019-04-30T14:53:32.655Z,39.17
2019-04-30T14:54:25.954Z,39.37
2019-04-30T14:55:29.365Z,40.59
2019-04-30T14:59:22.524Z,40.59
2019-04-30T15:00:26.219Z,41.51
2019-04-30T15:01:24.585Z,40.41
2019-04-30T15:02:22.601Z,40.41
2019-04-30T15:07:27.254Z,40.41
2019-04-30T15:08:26.235Z,41.49
2019-04-30T15:09:26.216Z,42.99
2019-04-30T15:10:26.752Z,39.89
2019-04-30T15:11:28.733Z,39.71
2019-04-30T15:12:26.199Z,39.40
2019-04-30T15:13:26.156Z,39.31
2019-04-30T15:14:26.241Z,40.51
2019-04-30T15:15:26.510Z,40.13
2019-04-30T15:16:29.086Z,41.11
2019-04-30T15:20:44.488Z,43.90
2019-04-30T15:21:45.431Z,39.79
2019-04-30T15:22:44.354Z,40.09
2019-04-30T15:23:45.041Z,40.91
2019-04-30T15:31:01.218Z,41.74
2019-04-30T15:32:03.566Z,42.24
2019-04-30T15:33:00.499Z,42.16
2019-04-30T15:34:03.055Z,41.96
2019-04-30T15:35:08.863Z,42.97
2019-04-30T15:36:02.170Z,42.07
2019-04-30T15:37:01.362Z,42.38
2019-04-30T15:43:11.932Z,43.58
2019-04-30T15:44:12.317Z,42.88
2019-04-30T15:45:14.862Z,43.88
2019-04-30T15:46:11.702Z,42.27
2019-04-30T15:48:43.988Z,43.68
2019-04-30T15:49:40.917Z,43.16
2019-04-30T15:51:42.361Z,43.38
2019-04-30T15:58:19.213Z,44.16
2019-04-30T16:01:58.102Z,44.18
2019-04-30T16:03:00.071Z,45.41
2019-04-30T16:03:57.693Z,44.31
2019-04-30T16:04:59.888Z,44.00
2019-04-30T16:07:49.229Z,44.51
2019-04-30T16:08:44.669Z,45.41
2019-04-30T16:57:33.373Z,50.78
2019-04-30T16:58:32.891Z,51.28
2019-04-30T16:59:33.071Z,51.71
2019-04-30T17:00:32.852Z,52.01
2019-04-30T17:01:32.879Z,52.14
2019-04-30T17:02:32.841Z,52.42
2019-04-30T17:03:33.112Z,52.04
2019-04-30T17:04:32.810Z,52.14
2019-04-30T17:05:32.807Z,53.14
2019-04-30T17:06:32.812Z,52.74
2019-04-30T17:07:32.819Z,51.93
2019-04-30T17:08:32.822Z,52.94
2019-04-30T17:09:32.841Z,52.51
2019-04-30T17:10:32.777Z,51.93
2019-04-30T17:11:32.745Z,52.34
2019-04-30T17:12:32.716Z,52.84
2019-04-30T17:13:32.745Z,53.34
2019-04-30T17:14:32.724Z,53.17
2019-04-30T17:15:32.704Z,53.38
2019-04-30T17:16:32.675Z,53.38
2019-04-30T17:17:32.696Z,53.07
2019-04-30T17:18:32.686Z,53.78
2019-04-30T17:19:32.655Z,53.17
2019-04-30T17:20:32.626Z,52.87
2019-04-30T17:21:32.621Z,53.27
2019-04-30T17:22:32.632Z,53.27
2019-04-30T17:23:32.593Z,54.10
2019-04-30T17:24:33.100Z,53.50
2019-04-30T17:25:32.570Z,53.30
2019-04-30T17:26:32.564Z,53.60
2019-04-30T17:27:32.601Z,53.40
2019-04-30T17:28:32.665Z,53.60
2019-04-30T17:29:32.537Z,53.42
2019-04-30T17:30:33.577Z,53.42
2019-04-30T17:56:31.128Z,55.93
2019-04-30T17:57:34.386Z,55.73
2019-04-30T17:58:30.726Z,55.62
2019-04-30T17:59:30.661Z,55.55
2019-04-30T18:00:30.657Z,55.82
2019-04-30T18:01:32.254Z,55.62
2019-04-30T18:02:30.705Z,55.85
2019-04-30T18:03:30.626Z,56.46
2019-04-30T18:04:30.636Z,56.86
2019-04-30T18:05:30.620Z,56.36
2019-04-30T18:07:49.808Z,57.20
2019-04-30T18:08:47.982Z,57.20
2019-04-30T18:09:48.790Z,57.20
2019-04-30T18:18:19.260Z,57.40
2019-04-30T18:22:43.793Z,57.40
2019-04-30T18:24:59.185Z,57.73
2019-04-30T18:36:59.357Z,57.65
2019-04-30T18:37:58.958Z,58.16
2019-04-30T18:38:59.087Z,58.18
2019-04-30T18:40:00.179Z,58.39
2019-04-30T18:40:59.460Z,58.29
2019-04-30T18:41:58.883Z,58.18
2019-04-30T18:43:00.003Z,58.49
2019-04-30T18:44:25.902Z,58.49
2019-04-30T18:44:58.842Z,59.00
2019-04-30T18:46:00.664Z,59.30
2019-04-30T18:46:59.102Z,59.20
2019-04-30T18:49:03.033Z,59.74
2019-04-30T18:50:00.855Z,59.53
2019-04-30T18:51:00.223Z,59.43
2019-04-30T18:51:59.117Z,59.23
2019-04-30T18:53:00.209Z,60.27
2019-04-30T18:54:06.544Z,59.84
2019-04-30T18:54:59.493Z,59.46
2019-04-30T18:56:03.403Z,60.35
2019-04-30T19:00:37.016Z,60.68
2019-04-30T19:10:55.695Z,61.21
2019-04-30T19:11:55.497Z,61.55
2019-04-30T19:12:56.301Z,61.85
2019-04-30T19:13:55.440Z,61.65
2019-04-30T19:14:55.453Z,62.16
2019-04-30T19:16:18.049Z,62.46
2019-04-30T19:16:56.409Z,62.46
2019-04-30T19:18:00.745Z,62.59
2019-04-30T19:18:55.387Z,62.90
2019-04-30T19:19:55.379Z,62.97
2019-04-30T19:20:55.372Z,62.59
2019-04-30T19:21:56.085Z,62.70
2019-04-30T19:22:55.613Z,62.18
2019-04-30T19:23:55.343Z,62.39
2019-04-30T19:24:58.685Z,62.29
2019-04-30T19:25:56.508Z,63.30
2019-04-30T19:26:55.298Z,63.74
2019-04-30T19:27:55.320Z,63.74
2019-04-30T19:28:55.333Z,63.84
2019-04-30T19:29:55.264Z,63.54
2019-04-30T19:30:58.393Z,64.25
2019-04-30T19:31:56.278Z,64.15
2019-04-30T19:32:55.249Z,64.76
2019-04-30T19:33:55.211Z,64.96
2019-04-30T19:34:55.227Z,64.65
2019-04-30T19:35:55.210Z,64.89
2019-04-30T19:36:55.181Z,64.38
2019-04-30T19:37:55.173Z,64.79
2019-04-30T19:38:55.166Z,64.69
2019-04-30T19:39:55.247Z,64.38
2019-04-30T19:40:55.157Z,65.30